• Join FlightAware (Why Join?)
  • Login
  • US Flag 
05:16AM EDT


 

Airport Tracker/Info


-or-


 

Live Flight TrackerFlight Track Log ✈ SWA3028 ✈ 05-Jul-2013 ✈ KROC - KMDW

Flight Track Log - Related Links

Times and Time Zones

All times are in EDT time to prevent confusion due to time zone crossing. See the SWA3028 flight status page for this flight to view local times or setup timezone preferences in your user account.

Time Position Orientation Groundspeed Altitude Reporting Facility
EDT Latitude Longitude Course Direction KTS MPH feet Rate Location/Type
08:03AM 43.0975 -77.6972 218° Southwest 144 166 1,600  Level Cleveland Center
08:03AM 43.0750 -77.7211 218° Southwest 184 212 2,500 2,520 Climbing Cleveland Center
08:05AM 42.9881 -77.7422 190° South 217 250 6,600 3,300 Climbing Cleveland Center
08:06AM 42.9156 -77.7567 188° South 251 289 10,700 3,300 Climbing Cleveland Center
08:07AM 42.8306 -77.7747 189° South 289 333 13,200 2,820 Climbing Cleveland Center
08:08AM 42.7392 -77.7986 191° South 319 367 16,400 2,880 Climbing Cleveland Center
08:09AM 42.6439 -77.8197 189° South 340 391 19,000 2,580 Climbing Cleveland Center
08:10AM 42.5425 -77.8467 191° South 361 415 21,600 2,400 Climbing Cleveland Center
08:11AM 42.4908 -77.9644 239° Southwest 334 384 23,900 2,100 Climbing Cleveland Center
08:12AM 42.4586 -78.1064 253° West 358 412 25,900 1,800 Climbing Cleveland Center
08:13AM 42.4222 -78.2542 252° West 383 441 27,600 1,620 Climbing Cleveland Center
08:14AM 42.3833 -78.4047 251° West 413 475 29,200 1,680 Climbing Cleveland Center
08:15AM 42.3444 -78.5633 252° West 435 501 31,000 1,860 Climbing Cleveland Center
08:16AM 42.3056 -78.7133 251° West 441 507 33,000 960 Climbing Cleveland Center
08:17AM 42.2661 -78.8661 251° West 441 507 33,000 1,080 Level Cleveland Center
08:18AM 42.2286 -79.0156 251° West 433 498 35,200 2,100 Climbing Cleveland Center
08:19AM 42.1950 -79.1622 253° West 428 493 37,200 1,560 Climbing Cleveland Center
08:20AM 42.1781 -79.3111 261° West 418 481 38,400 1,080 Climbing Cleveland Center
08:21AM 42.1589 -79.4656 261° West 418 481 39,400 780 Climbing Cleveland Center
08:22AM 42.1394 -79.6172 260° West 418 481 40,000 300 Climbing Cleveland Center
08:23AM 42.1197 -79.7825 261° West 413 475 40,000  Level Cleveland Center
08:24AM 42.0978 -79.9311 259° West 413 475 40,000  Level Cleveland Center
08:25AM 42.0797 -80.0656 260° West 413 475 40,000  Level Cleveland Center
08:26AM 42.0594 -80.2308 261° West 413 475 40,000  Level Cleveland Center
08:27AM 42.0411 -80.3819 261° West 413 475 40,000  Level Cleveland Center
08:28AM 42.0183 -80.5272 258° West 413 475 40,000  Level Cleveland Center
08:29AM 41.9975 -80.6808 260° West 413 475 40,000  Level Cleveland Center
08:30AM 41.9764 -80.8261 259° West 413 475 40,000  Level Cleveland Center
08:31AM 41.9572 -80.9739 260° West 407 468 40,000  Level Cleveland Center
08:32AM 41.9358 -81.1192 259° West 408 470 40,000  Level Cleveland Center
08:33AM 41.9142 -81.2667 259° West 408 470 40,000  Level Cleveland Center
08:34AM 41.8944 -81.4089 259° West 408 470 40,000  Level Cleveland Center
08:35AM 41.8744 -81.5536 260° West 408 470 40,000  Level Cleveland Center
08:36AM 41.8522 -81.7011 259° West 408 470 40,000  Level Cleveland Center
08:37AM 41.8300 -81.8456 258° West 408 470 40,000  Level Cleveland Center
08:38AM 41.8094 -81.9900 259° West 403 464 40,000  Level Cleveland Center
08:39AM 41.7847 -82.1286 257° West 393 452 40,000  Level Cleveland Center
08:40AM 41.7600 -82.2728 257° West 393 452 40,000  Level Cleveland Center
08:41AM 41.7389 -82.4225 259° West 398 458 40,000  Level Cleveland Center
08:42AM 41.7156 -82.5664 258° West 403 464 40,000  Level Cleveland Center
08:43AM 41.6919 -82.7186 258° West 416 479 40,000  Level Cleveland Center
08:44AM 41.6703 -82.8653 259° West 416 479 40,000  Level Cleveland Center
08:45AM 41.6444 -83.0172 257° West 416 479 40,000 -300 Level Cleveland Center
08:46AM 41.6267 -83.1528 260° West 411 473 39,500 -720 Descending Cleveland Center
08:47AM 41.5983 -83.3017 256° West 411 473 38,600 -900 Descending Cleveland Center
08:48AM 41.5739 -83.4506 258° West 411 473 37,700 -960 Descending Cleveland Center
08:49AM 41.5511 -83.5994 258° West 411 473 36,700 -900 Descending Cleveland Center
08:50AM 41.5242 -83.7478 256° West 411 473 36,000 -360 Descending Cleveland Center
08:51AM 41.5078 -83.8761 260° West 410 472 36,000  Level Chicago Center
08:52AM 41.4997 -84.0256 266° West 410 472 36,000  Level Chicago Center
08:53AM 41.5028 -84.2094 271° West 415 478 36,000 -600 Level Chicago Center
08:54AM 41.5064 -84.3594 272° West 409 471 34,800 -1,740 Descending Chicago Center
08:55AM 41.5092 -84.5081 271° West 403 464 32,500 -2,160 Descending Chicago Center
08:56AM 41.5114 -84.6533 271° West 395 455 30,400 -1,260 Descending Chicago Center
08:57AM 41.5128 -84.7969 271° West 389 448 30,000 -240 Descending Chicago Center
08:58AM 41.5156 -84.9456 271° West 396 456 30,000 -420 Level Chicago Center
08:59AM 41.5169 -85.0925 271° West 398 458 29,200 -1,320 Descending Chicago Center
09:00AM 41.5186 -85.2347 271° West 386 444 27,300 -1,920 Descending Chicago Center
09:01AM 41.5181 -85.3719 270° West 368 423 25,400 -1,860 Descending Chicago Center
09:02AM 41.5211 -85.5114 272° West 366 421 23,500 -1,860 Descending Chicago Center
09:03AM 41.5217 -85.6419 270° West 353 406 21,700 -1,800 Descending Chicago Center
09:04AM 41.5228 -85.7731 271° West 352 405 19,900 -1,620 Descending Chicago Center
09:05AM 41.5239 -85.8989 271° West 343 395 18,400 -1,620 Descending Chicago Center
09:06AM 41.5236 -86.0197 270° West 329 379 16,700 -1,920 Descending Chicago Center
09:07AM 41.5242 -86.1639 270° West 321 369 14,500 -1,980 Descending Chicago Center
09:08AM 41.5228 -86.2803 269° West 316 364 12,700 -1,680 Descending Chicago Center
09:09AM 41.5228 -86.3942 270° West 309 356 11,100 -840 Descending Chicago Center
09:10AM 41.5217 -86.5058 269° West 304 350 11,000 -60 Descending Chicago Center
09:11AM 41.5217 -86.6175 270° West 302 348 11,000 -300 Level Chicago Center
09:12AM 41.5208 -86.7231 269° West 299 344 10,500 -960 Descending Chicago Center
09:13AM 41.5197 -86.8583 269° West 304 350 9,100 -1,140 Descending Chicago Center
09:14AM 41.5197 -86.9664 270° West 292 336 8,200 -960 Descending Chicago Center
09:15AM 41.5261 -87.0683 275° West 281 323 7,200 -1,020 Descending Chicago Center
09:16AM 41.5536 -87.1672 290° West 286 329 6,200 -1,020 Descending Chicago Center
09:17AM 41.5789 -87.2628 290° West 279 321 5,200 -780 Descending Chicago Center
09:18AM 41.6033 -87.3586 289° West 274 315 4,700 -600 Descending Chicago Center
09:19AM 41.6319 -87.4656 290° West 261 300 4,000 -360 Descending Chicago Center
09:20AM 41.6522 -87.5442 289° West 234 269 4,000 -180 Level Chicago Center
09:21AM 41.6825 -87.6069 303° West 214 246 3,700 -840 Descending Chicago Center
09:22AM 41.7200 -87.6617 313° West 207 238 2,400 -1,080 Descending Chicago Center
09:23AM 41.7497 -87.7047 313° West 185 213 1,600 -720 Descending Chicago Center
09:24AM 41.7753 -87.7389 315° West 153 176 1,000 -600 Descending Chicago Center
09:26AM 41.7833 -87.7500 334° Northwest  Level FlightAware Approximate